Charleston Air Force Base-International Airport
KCHS : now visible

Airfield :











YOU CAN JOIN US ON...

 
LOGIN :

Register | Disclaimer

   EN    FR    IT 

 









Legend :    VFR   Marginal VFR   IFR   Intensive IFR   Very Intensive IFR
Visi :
Ceiling :
>= 8 km
>= 3000ft
5 to 8 km
1000 to 3000 ft
1500m to 5 km
500 to 1000 ft
800 to 1500m
200 to 500 ft
< 800m
< 200 ft
Symbols :   Thunderstorms  Fog  Heavy snow  Heavy precipitations  Wind > 20 kt






- Airport Elevation : 46 ft
- IATA code : CHS


KCHS - Charleston Air Force Base-International

CURRENT METAR :
  • 120156Z 35008G17KT 10SM FEW100 OVC150 08/M02 A3051 RMK AO2 SLP330 T00831022

EXPIRED METARs :
  • 120056Z 36013KT 10SM SCT120 BKN150 09/M03 A3048 RMK AO2 SLP320 T00941028
  • 112356Z 02012KT 10SM FEW075 OVC095 10/01 A3047 RMK AO2 RAB16E38 SLP317 P0000 60000 T01000011 10156 20100 51031

TAF KCHS
Valid from the 12 at 00:00 until the 13 at 00:00 UTC


112337Z 1200/1224 02012G18KT P6SM -RA SCT050 OVC100
FM120400 03011KT P6SM SCT150
FM121400 04012G18KT P6SM FEW150
FM122000 05011KT P6SM BKN035



MET'MAP, your aeronautical weather chart ! - Copyright ORBIFLY December 2007 - Disclaimer

ORBIFLY MET'MAP TEAM :

Programming & Development : Alexandra Zaïnal
Concept & original design : Baudouin d'Aumeries
Assistance for programming : Marc-Olivier Méhu
Technical & hardware support : Manuel Goepfert

Contact : metmap@orbifly.com




SOURCES & CREDITS :

   NOAA       Earth
Advisory